createdAt,value
2022-09-13T00:01:19.348Z,5.70
2022-09-13T00:03:48.078Z,5.57
2022-09-13T00:06:17.413Z,5.30
2022-09-13T00:08:45.948Z,5.20
2022-09-13T00:11:18.685Z,5.17
2022-09-13T00:13:48.524Z,5.33
2022-09-13T00:16:18.114Z,5.50
2022-09-13T00:18:47.038Z,4.90
2022-09-13T00:21:16.439Z,5.17
2022-09-13T00:23:45.558Z,5.00
2022-09-13T00:26:15.573Z,5.03
2022-09-13T00:28:45.488Z,5.23
2022-09-13T00:31:15.482Z,5.00
2022-09-13T00:33:44.117Z,4.90
2022-09-13T00:36:13.409Z,4.37
2022-09-13T00:38:42.368Z,4.33
2022-09-13T00:41:12.793Z,4.13
2022-09-13T00:43:45.883Z,4.23
2022-09-13T00:46:20.105Z,4.67
2022-09-13T00:48:49.286Z,4.10
2022-09-13T00:51:18.378Z,4.10
2022-09-13T00:53:49.531Z,4.10
2022-09-13T00:56:23.490Z,4.40
2022-09-13T00:58:54.537Z,4.30
2022-09-13T01:01:28.079Z,3.90
2022-09-13T01:03:57.299Z,3.80
2022-09-13T01:06:29.492Z,3.43
2022-09-13T01:09:04.362Z,3.83
2022-09-13T01:11:35.865Z,3.83
2022-09-13T01:14:05.265Z,3.53
2022-09-13T01:16:35.254Z,3.60
2022-09-13T01:19:03.884Z,3.10
2022-09-13T01:21:52.701Z,3.50
2022-09-13T01:24:47.982Z,3.37
2022-09-13T01:27:30.882Z,2.77
2022-09-13T01:30:16.873Z,3.10
2022-09-13T01:33:12.038Z,3.30
2022-09-13T01:35:46.798Z,3.73
2022-09-13T01:38:21.831Z,3.30
2022-09-13T01:40:55.146Z,3.40
2022-09-13T01:43:33.426Z,3.80
2022-09-13T01:46:06.686Z,3.50
2022-09-13T01:48:42.517Z,3.50
2022-09-13T01:51:14.733Z,3.80
2022-09-13T01:53:46.408Z,3.33
2022-09-13T01:56:19.587Z,3.30
2022-09-13T01:58:50.783Z,3.37
2022-09-13T02:01:21.557Z,3.17
2022-09-13T02:03:56.094Z,3.10
2022-09-13T02:06:26.514Z,3.07
2022-09-13T02:08:56.194Z,3.10
2022-09-13T02:11:24.842Z,3.47
2022-09-13T02:14:02.584Z,3.33
2022-09-13T02:16:35.118Z,3.50
2022-09-13T02:19:05.811Z,2.20
2022-09-13T02:21:35.942Z,1.93
2022-09-13T02:24:05.526Z,1.90
2022-09-13T02:26:35.634Z,1.67
2022-09-13T02:29:07.993Z,1.40
2022-09-13T02:31:40.702Z,1.60
2022-09-13T02:34:11.422Z,1.50
2022-09-13T02:36:41.797Z,1.57
2022-09-13T02:39:15.577Z,1.30
2022-09-13T02:41:46.914Z,1.57
2022-09-13T02:44:16.965Z,1.43
2022-09-13T02:47:02.198Z,1.20
2022-09-13T02:49:32.425Z,1.50
2022-09-13T02:52:08.990Z,1.60
2022-09-13T02:54:41.090Z,1.50
2022-09-13T02:57:12.391Z,1.40
2022-09-13T02:59:41.025Z,1.37
2022-09-13T03:02:12.759Z,1.50
2022-09-13T03:04:41.394Z,1.47
2022-09-13T03:07:12.338Z,1.37
2022-09-13T03:09:44.758Z,1.23
2022-09-13T03:12:23.809Z,1.47
2022-09-13T03:14:55.028Z,1.50
2022-09-13T03:17:38.093Z,1.23
2022-09-13T03:20:11.630Z,1.53
2022-09-13T03:22:50.584Z,1.50
2022-09-13T03:25:22.286Z,1.40
2022-09-13T03:27:53.448Z,1.40
2022-09-13T03:30:22.035Z,1.40
2022-09-13T03:32:53.311Z,1.47
2022-09-13T03:35:26.773Z,1.30
2022-09-13T03:37:58.537Z,1.50
2022-09-13T03:40:30.443Z,1.20
2022-09-13T03:43:03.165Z,1.37
2022-09-13T03:45:33.933Z,1.37
2022-09-13T03:48:04.895Z,1.33
2022-09-13T03:50:33.543Z,1.50
2022-09-13T03:53:03.291Z,1.37
2022-09-13T03:55:32.698Z,1.07
2022-09-13T03:58:01.201Z,1.23
2022-09-13T04:00:30.279Z,1.10
2022-09-13T04:02:59.194Z,1.03
2022-09-13T04:05:29.006Z,0.97
2022-09-13T04:07:57.416Z,0.90
2022-09-13T04:10:26.087Z,1.00
2022-09-13T04:12:55.957Z,0.90
2022-09-13T04:15:24.739Z,0.90
2022-09-13T04:17:53.386Z,0.90
2022-09-13T04:20:22.370Z,0.90
2022-09-13T04:22:55.660Z,0.80
2022-09-13T04:25:24.519Z,0.90
2022-09-13T04:27:55.600Z,0.90
2022-09-13T04:30:24.310Z,1.00
2022-09-13T04:32:52.871Z,0.90
2022-09-13T04:35:21.353Z,0.87
2022-09-13T04:37:49.838Z,0.80
2022-09-13T04:40:21.409Z,0.80
2022-09-13T04:42:52.343Z,0.70
2022-09-13T04:45:20.901Z,0.60
2022-09-13T04:47:52.826Z,0.77
2022-09-13T04:50:21.845Z,0.67
2022-09-13T04:52:52.617Z,0.83
2022-09-13T04:55:22.515Z,0.90
2022-09-13T04:57:54.801Z,0.80
2022-09-13T05:00:23.371Z,0.60
2022-09-13T05:02:56.257Z,0.60
2022-09-13T05:05:26.041Z,0.80
2022-09-13T05:07:54.607Z,0.70
2022-09-13T05:10:24.433Z,0.70
2022-09-13T05:12:52.997Z,0.57
2022-09-13T05:15:21.557Z,0.50
2022-09-13T05:17:50.007Z,0.60
2022-09-13T05:20:18.927Z,0.57
2022-09-13T05:22:47.542Z,0.73
2022-09-13T05:25:16.326Z,0.63
2022-09-13T05:27:46.978Z,0.60
2022-09-13T05:30:15.849Z,0.50
2022-09-13T05:32:44.288Z,0.60
2022-09-13T05:35:13.922Z,0.70
2022-09-13T05:37:42.453Z,0.80
2022-09-13T05:40:14.299Z,0.60
2022-09-13T05:42:42.981Z,0.67
2022-09-13T05:45:13.077Z,0.80
2022-09-13T05:47:41.523Z,0.80
2022-09-13T05:50:19.127Z,0.80
2022-09-13T05:53:00.060Z,0.90
2022-09-13T05:55:28.800Z,0.90
2022-09-13T05:57:57.231Z,1.10
2022-09-13T06:00:27.022Z,0.97
2022-09-13T06:02:55.766Z,0.90
2022-09-13T06:05:26.665Z,0.97
2022-09-13T06:07:57.437Z,1.00
2022-09-13T06:10:25.885Z,2.10
2022-09-13T06:12:54.382Z,1.00
2022-09-13T06:15:22.997Z,1.00
2022-09-13T06:17:52.815Z,1.07
2022-09-13T06:20:21.243Z,1.00
2022-09-13T06:22:50.025Z,0.90
2022-09-13T06:25:18.460Z,1.10
2022-09-13T06:27:48.137Z,1.17
2022-09-13T06:30:19.715Z,1.33
2022-09-13T06:32:48.151Z,1.00
2022-09-13T06:35:18.171Z,1.00
2022-09-13T06:37:46.828Z,1.00
2022-09-13T06:40:15.280Z,1.30
2022-09-13T06:42:43.757Z,1.00
2022-09-13T06:45:12.475Z,1.13
2022-09-13T06:47:40.914Z,1.03
2022-09-13T06:50:09.650Z,1.10
2022-09-13T06:52:39.669Z,1.33
2022-09-13T06:55:12.063Z,0.80
2022-09-13T06:57:41.297Z,1.10
2022-09-13T07:00:10.566Z,1.00
2022-09-13T07:02:39.013Z,1.20
2022-09-13T07:05:07.904Z,0.90
2022-09-13T07:07:36.319Z,0.80
2022-09-13T07:10:06.526Z,0.83
2022-09-13T07:12:35.187Z,1.07
2022-09-13T07:15:03.616Z,0.70
2022-09-13T07:17:32.026Z,0.73
2022-09-13T07:20:00.831Z,1.00
2022-09-13T07:22:29.285Z,0.73
2022-09-13T07:24:57.708Z,0.87
2022-09-13T07:27:27.873Z,0.97
2022-09-13T07:29:56.311Z,0.93
2022-09-13T07:32:24.741Z,0.93
2022-09-13T07:34:53.350Z,1.10
2022-09-13T07:37:22.054Z,0.90
2022-09-13T07:39:51.033Z,0.90
2022-09-13T07:42:19.698Z,1.00
2022-09-13T07:44:49.544Z,1.20
2022-09-13T07:47:18.083Z,1.00
2022-09-13T07:49:46.962Z,0.87
2022-09-13T07:52:15.385Z,1.07
2022-09-13T07:54:43.811Z,0.90
2022-09-13T07:57:12.698Z,1.07
2022-09-13T07:59:41.114Z,1.10
2022-09-13T08:02:11.725Z,1.00
2022-09-13T08:04:40.481Z,0.87
2022-09-13T08:07:08.914Z,1.17
2022-09-13T08:09:37.333Z,0.90
2022-09-13T08:12:06.055Z,1.33
2022-09-13T08:14:34.468Z,1.20
2022-09-13T08:17:03.012Z,0.70
2022-09-13T08:19:33.081Z,1.20
2022-09-13T08:22:01.513Z,0.93
2022-09-13T08:24:29.961Z,0.87
2022-09-13T08:26:58.608Z,1.10
2022-09-13T08:29:27.269Z,1.40
2022-09-13T08:31:55.709Z,0.93
2022-09-13T08:34:24.330Z,1.00
2022-09-13T08:36:54.375Z,0.83
2022-09-13T08:39:22.890Z,1.27
2022-09-13T08:42:09.123Z,1.00
2022-09-13T08:44:39.039Z,1.07
2022-09-13T08:47:17.718Z,0.80
2022-09-13T08:49:48.317Z,0.80
2022-09-13T08:52:26.546Z,0.73
2022-09-13T08:54:58.344Z,0.97
2022-09-13T08:57:28.689Z,1.23
2022-09-13T09:00:02.242Z,1.40
2022-09-13T09:02:39.757Z,0.80
2022-09-13T09:05:15.624Z,0.70
2022-09-13T09:07:48.274Z,1.00
2022-09-13T09:10:18.215Z,0.90
2022-09-13T09:12:47.949Z,0.80
2022-09-13T09:15:18.153Z,0.70
2022-09-13T09:17:53.025Z,1.03
2022-09-13T09:20:25.281Z,1.00
2022-09-13T09:22:55.730Z,0.77
2022-09-13T09:25:28.493Z,0.80
2022-09-13T09:27:56.999Z,0.60
2022-09-13T09:30:25.542Z,0.60
2022-09-13T09:33:08.051Z,0.53
2022-09-13T09:35:45.266Z,0.53
2022-09-13T09:38:25.359Z,0.77
2022-09-13T09:40:54.038Z,0.70
2022-09-13T09:43:27.221Z,0.93
2022-09-13T09:45:57.326Z,0.47
2022-09-13T09:48:30.074Z,0.40
2022-09-13T09:51:00.043Z,0.67
2022-09-13T09:53:36.663Z,0.50
2022-09-13T09:56:08.526Z,0.40
2022-09-13T09:58:40.962Z,0.30
2022-09-13T10:01:18.061Z,0.40
2022-09-13T10:03:51.767Z,0.43
2022-09-13T10:06:22.218Z,0.70
2022-09-13T10:08:57.165Z,0.53
2022-09-13T10:11:26.841Z,0.60
2022-09-13T10:13:59.910Z,0.60
2022-09-13T10:16:29.933Z,0.40
2022-09-13T10:19:18.849Z,0.37
2022-09-13T10:22:00.326Z,0.30
2022-09-13T10:24:30.610Z,0.40
2022-09-13T10:26:59.726Z,0.40
2022-09-13T10:29:28.746Z,0.20
2022-09-13T10:31:59.095Z,0.20
2022-09-13T10:34:29.154Z,0.20
2022-09-13T10:36:59.905Z,0.27
2022-09-13T10:39:30.575Z,0.33
2022-09-13T10:42:01.014Z,0.50
2022-09-13T10:44:34.563Z,0.23
2022-09-13T10:47:04.616Z,0.20
2022-09-13T10:49:40.530Z,0.20
2022-09-13T10:52:23.871Z,0.30
2022-09-13T10:54:54.087Z,0.40
2022-09-13T10:57:32.660Z,0.40
2022-09-13T11:00:01.096Z,0.30
2022-09-13T11:02:38.790Z,0.30
2022-09-13T11:05:21.473Z,0.30
2022-09-13T11:07:58.403Z,0.33
2022-09-13T11:10:31.013Z,0.27
2022-09-13T11:13:03.830Z,0.33
2022-09-13T11:15:38.467Z,0.40
2022-09-13T11:18:16.801Z,0.50
2022-09-13T11:20:49.083Z,0.40
2022-09-13T11:23:38.532Z,0.30
2022-09-13T11:26:13.982Z,0.47
2022-09-13T11:28:48.703Z,0.30
2022-09-13T11:31:30.432Z,0.60
2022-09-13T11:34:06.502Z,0.40
2022-09-13T11:36:40.033Z,0.40
2022-09-13T11:39:13.631Z,0.23
2022-09-13T11:41:48.518Z,0.37
2022-09-13T11:44:25.286Z,0.30
2022-09-13T11:47:00.298Z,0.33
2022-09-13T11:49:34.081Z,0.60
2022-09-13T11:52:08.238Z,0.50
2022-09-13T11:54:44.088Z,0.60
2022-09-13T11:57:16.101Z,0.60
2022-09-13T11:59:47.543Z,0.77
2022-09-13T12:02:20.037Z,0.43
2022-09-13T12:05:17.934Z,0.30
2022-09-13T12:07:42.454Z,0.50
2022-09-13T12:10:17.267Z,0.50
2022-09-13T12:12:49.833Z,0.50
2022-09-13T12:15:20.680Z,0.57
2022-09-13T12:17:50.457Z,0.40
2022-09-13T12:20:22.805Z,0.43
2022-09-13T12:22:53.073Z,0.40
2022-09-13T12:25:23.849Z,0.20
2022-09-13T12:27:57.330Z,0.30
2022-09-13T12:30:28.576Z,0.10
2022-09-13T12:32:59.074Z,0.20
2022-09-13T12:35:30.213Z,0.40
2022-09-13T12:38:13.598Z,0.20
2022-09-13T12:41:00.022Z,0.30
2022-09-13T12:43:37.290Z,0.00
2022-09-13T12:46:21.149Z,0.10
2022-09-13T12:49:05.009Z,0.10
2022-09-13T12:51:42.657Z,0.10
2022-09-13T12:54:31.734Z,0.20
2022-09-13T12:57:04.986Z,0.10
2022-09-13T12:59:40.326Z,0.30
2022-09-13T13:02:25.718Z,0.10
2022-09-13T13:04:55.360Z,0.10
2022-09-13T13:07:25.100Z,0.20
2022-09-13T13:09:54.762Z,0.20
2022-09-13T13:12:31.821Z,0.20
2022-09-13T13:15:02.970Z,0.20
2022-09-13T13:17:48.214Z,0.10
2022-09-13T13:20:35.337Z,0.20
2022-09-13T13:23:05.756Z,0.10
2022-09-13T13:25:37.884Z,0.10
2022-09-13T13:28:29.882Z,0.20
2022-09-13T13:30:59.994Z,0.20
2022-09-13T13:33:32.015Z,0.20
2022-09-13T13:36:20.566Z,0.20
2022-09-13T13:38:54.031Z,0.40
2022-09-13T13:41:52.556Z,0.20
2022-09-13T13:44:39.520Z,0.30
2022-09-13T13:47:26.039Z,0.47
2022-09-13T13:49:55.363Z,0.30
2022-09-13T13:52:39.552Z,0.20
2022-09-13T13:55:22.806Z,0.27
2022-09-13T13:57:59.331Z,0.20
2022-09-13T14:00:30.416Z,0.50
2022-09-13T14:03:08.422Z,0.30
2022-09-13T14:05:42.582Z,0.20
2022-09-13T14:08:25.043Z,0.13
2022-09-13T14:10:55.893Z,0.20
2022-09-13T14:13:36.587Z,0.30
2022-09-13T14:16:08.354Z,0.30
2022-09-13T14:18:51.729Z,0.20
2022-09-13T14:21:21.809Z,0.10
2022-09-13T14:23:50.253Z,0.20
2022-09-13T14:26:19.035Z,0.10
2022-09-13T14:28:48.994Z,0.13
2022-09-13T14:31:20.539Z,0.47
2022-09-13T14:33:49.254Z,0.30
2022-09-13T14:36:19.429Z,0.40
2022-09-13T14:38:55.335Z,0.27
2022-09-13T14:41:31.221Z,0.43
2022-09-13T14:44:22.582Z,0.13
2022-09-13T14:46:54.819Z,0.20
2022-09-13T14:49:27.125Z,0.30
2022-09-13T14:51:57.745Z,0.30
2022-09-13T14:54:31.242Z,0.20
2022-09-13T14:57:01.517Z,0.40
2022-09-13T14:59:33.090Z,0.20
2022-09-13T15:02:07.021Z,0.30
2022-09-13T15:04:38.879Z,0.23
2022-09-13T15:07:11.954Z,0.20
2022-09-13T15:09:40.741Z,0.37
2022-09-13T15:12:22.690Z,0.30
2022-09-13T15:15:12.618Z,0.70
2022-09-13T15:17:54.074Z,0.30
2022-09-13T15:20:23.367Z,0.60
2022-09-13T15:22:53.768Z,0.33
2022-09-13T15:25:23.566Z,0.43
2022-09-13T15:27:52.380Z,0.23
2022-09-13T15:30:27.002Z,0.30
2022-09-13T15:33:08.705Z,0.50
2022-09-13T15:35:38.606Z,0.20
2022-09-13T15:38:18.236Z,0.30
2022-09-13T15:40:47.787Z,0.30
2022-09-13T15:43:16.326Z,0.27
2022-09-13T15:45:46.518Z,0.40
2022-09-13T15:48:19.749Z,0.37
2022-09-13T15:51:05.794Z,0.33
2022-09-13T15:53:34.346Z,0.43
2022-09-13T15:56:03.302Z,0.43
2022-09-13T15:58:32.129Z,0.40
2022-09-13T16:01:02.624Z,0.40
2022-09-13T16:03:31.194Z,0.30
2022-09-13T16:05:59.681Z,0.20
2022-09-13T16:08:28.107Z,0.40
2022-09-13T16:10:56.606Z,0.53
2022-09-13T16:13:25.202Z,0.50
2022-09-13T16:15:57.183Z,0.20
2022-09-13T16:18:30.722Z,0.40
2022-09-13T16:20:59.215Z,0.40
2022-09-13T16:23:27.834Z,0.50
2022-09-13T16:25:57.906Z,0.50
2022-09-13T16:28:26.353Z,0.70
2022-09-13T16:30:55.299Z,0.50
2022-09-13T16:33:24.103Z,0.50
2022-09-13T16:35:53.916Z,0.30
2022-09-13T16:38:22.418Z,0.40
2022-09-13T16:40:51.137Z,0.60
2022-09-13T16:43:19.557Z,0.60
2022-09-13T16:45:50.521Z,0.70
2022-09-13T16:48:18.982Z,0.60
2022-09-13T16:50:47.409Z,0.50
2022-09-13T16:53:17.399Z,0.60
2022-09-13T16:55:46.324Z,0.50
2022-09-13T16:58:14.759Z,0.50
2022-09-13T17:00:45.523Z,0.60
2022-09-13T17:03:14.435Z,0.50
2022-09-13T17:05:42.917Z,0.40
2022-09-13T17:08:11.495Z,1.00
2022-09-13T17:10:41.313Z,0.53
2022-09-13T17:13:09.717Z,0.70
2022-09-13T17:15:40.456Z,1.03
2022-09-13T17:18:08.960Z,0.50
2022-09-13T17:20:37.392Z,0.50
2022-09-13T17:23:06.054Z,0.43
2022-09-13T17:25:34.490Z,0.70
2022-09-13T17:28:04.579Z,0.73
2022-09-13T17:30:33.234Z,0.50
2022-09-13T17:33:02.795Z,0.60
2022-09-13T17:35:31.205Z,0.60
2022-09-13T17:38:00.230Z,0.60
2022-09-13T17:40:29.071Z,0.60
2022-09-13T17:42:57.569Z,0.70
2022-09-13T17:45:27.874Z,0.50
2022-09-13T17:47:57.114Z,2.40
2022-09-13T17:50:25.556Z,2.40
2022-09-13T17:52:54.100Z,1.47
2022-09-13T17:55:22.679Z,0.77
2022-09-13T17:57:51.210Z,2.43
2022-09-13T18:00:20.351Z,2.50
2022-09-13T18:02:50.421Z,1.93
2022-09-13T18:05:19.173Z,3.23
2022-09-13T18:07:47.706Z,2.43
2022-09-13T18:10:42.631Z,0.77
2022-09-13T18:13:05.850Z,1.33
2022-09-13T18:15:34.413Z,1.70
2022-09-13T18:18:04.279Z,0.70
2022-09-13T18:20:35.296Z,1.20
2022-09-13T18:23:06.179Z,2.90
2022-09-13T18:25:34.730Z,2.00
2022-09-13T18:28:03.353Z,0.50
2022-09-13T18:30:31.938Z,3.30
2022-09-13T18:33:00.482Z,0.83
2022-09-13T18:35:30.302Z,3.40
2022-09-13T18:38:01.880Z,1.20
2022-09-13T18:40:30.508Z,0.50
2022-09-13T18:42:59.258Z,0.70
2022-09-13T18:45:27.910Z,0.70
2022-09-13T18:47:56.329Z,1.10
2022-09-13T18:50:24.806Z,0.80
2022-09-13T18:52:54.809Z,0.90
2022-09-13T18:55:23.231Z,1.03
2022-09-13T18:57:52.911Z,1.00
2022-09-13T19:00:21.534Z,0.80
2022-09-13T19:03:10.731Z,1.10
2022-09-13T19:05:39.989Z,1.20
2022-09-13T19:08:11.232Z,1.00
2022-09-13T19:10:40.073Z,1.10
2022-09-13T19:13:08.686Z,1.80
2022-09-13T19:15:37.157Z,1.20
2022-09-13T19:18:05.733Z,1.30
2022-09-13T19:20:34.360Z,2.40
2022-09-13T19:23:03.429Z,1.77
2022-09-13T19:25:36.265Z,1.93
2022-09-13T19:28:04.930Z,1.40
2022-09-13T19:30:35.578Z,7.20
2022-09-13T19:33:04.101Z,3.53
2022-09-13T19:35:33.854Z,1.83
2022-09-13T19:38:02.343Z,4.23
2022-09-13T19:40:32.901Z,1.73
2022-09-13T19:43:03.922Z,1.87
2022-09-13T19:45:34.702Z,2.53
2022-09-13T19:50:52.114Z,2.00
2022-09-13T19:53:23.456Z,6.17
2022-09-13T19:55:57.130Z,1.47
2022-09-13T19:58:27.449Z,1.80
2022-09-13T20:01:03.132Z,3.00
2022-09-13T20:03:31.735Z,1.87
2022-09-13T20:06:03.717Z,1.40
2022-09-13T20:08:33.150Z,1.50
2022-09-13T20:11:05.684Z,1.80
2022-09-13T20:13:36.029Z,1.60
2022-09-13T20:16:10.512Z,1.90
2022-09-13T20:18:39.063Z,1.40
2022-09-13T20:21:08.175Z,1.30
2022-09-13T20:23:37.602Z,1.33
2022-09-13T20:26:07.033Z,1.33
2022-09-13T20:28:36.975Z,1.40
2022-09-13T20:31:05.590Z,1.30
2022-09-13T20:33:35.815Z,1.50
2022-09-13T20:36:05.298Z,1.50
2022-09-13T20:38:34.103Z,1.63
2022-09-13T20:41:05.778Z,1.40
2022-09-13T20:43:35.738Z,1.57
2022-09-13T20:46:05.861Z,1.30
2022-09-13T20:48:34.433Z,1.60
2022-09-13T20:51:03.817Z,1.47
2022-09-13T20:53:32.567Z,1.30
2022-09-13T20:56:04.038Z,1.30
2022-09-13T20:58:33.137Z,1.23
2022-09-13T21:01:03.979Z,1.20
2022-09-13T21:03:36.621Z,1.07
2022-09-13T21:06:05.311Z,1.13
2022-09-13T21:08:42.066Z,1.07
2022-09-13T21:11:12.721Z,1.00
2022-09-13T21:13:42.718Z,0.90
2022-09-13T21:16:12.530Z,1.10
2022-09-13T21:18:42.443Z,1.20
2022-09-13T21:21:11.248Z,0.93
2022-09-13T21:23:40.231Z,0.80
2022-09-13T21:26:11.058Z,0.90
2022-09-13T21:28:40.173Z,1.03
2022-09-13T21:31:11.368Z,1.00
2022-09-13T21:33:40.055Z,0.70
2022-09-13T21:36:11.281Z,1.00
2022-09-13T21:38:40.185Z,0.90
2022-09-13T21:41:11.531Z,0.83
2022-09-13T21:43:40.178Z,0.90
2022-09-13T21:46:09.617Z,0.70
2022-09-13T21:48:38.669Z,2.40
2022-09-13T21:51:08.098Z,0.90
2022-09-13T21:53:39.534Z,1.03
2022-09-13T21:56:09.054Z,1.90
2022-09-13T21:58:38.101Z,0.90
2022-09-13T22:01:07.489Z,0.80
2022-09-13T22:03:39.102Z,1.30
2022-09-13T22:06:08.385Z,6.20
2022-09-13T22:08:39.112Z,3.70
2022-09-13T22:11:08.642Z,1.00
2022-09-13T22:13:37.703Z,1.10
2022-09-13T22:16:07.427Z,1.00
2022-09-13T22:18:36.226Z,0.93
2022-09-13T22:21:05.474Z,0.90
2022-09-13T22:23:34.468Z,1.00
2022-09-13T22:26:06.069Z,3.40
2022-09-13T22:28:34.618Z,1.00
2022-09-13T22:31:07.612Z,0.90
2022-09-13T22:33:36.582Z,1.20
2022-09-13T22:36:06.433Z,3.53
2022-09-13T22:38:35.457Z,1.00
2022-09-13T22:41:06.689Z,2.87
2022-09-13T22:43:35.157Z,1.07
2022-09-13T22:46:04.316Z,2.10
2022-09-13T22:48:33.207Z,0.80
2022-09-13T22:51:01.893Z,3.33
2022-09-13T22:53:30.392Z,1.20
2022-09-13T22:56:04.034Z,0.93
2022-09-13T22:58:34.091Z,1.00
2022-09-13T23:01:04.186Z,0.83
2022-09-13T23:03:32.774Z,1.00
2022-09-13T23:06:02.685Z,1.07
2022-09-13T23:08:31.490Z,0.80
2022-09-13T23:11:09.639Z,1.10
2022-09-13T23:13:39.559Z,1.07
2022-09-13T23:16:08.893Z,0.97
2022-09-13T23:18:37.749Z,1.07
2022-09-13T23:21:06.161Z,1.10
2022-09-13T23:23:34.649Z,0.80
2022-09-13T23:26:06.679Z,0.97
2022-09-13T23:28:35.321Z,1.03
2022-09-13T23:31:13.122Z,1.00
2022-09-13T23:33:42.162Z,1.07
2022-09-13T23:36:12.071Z,1.00
2022-09-13T23:38:40.983Z,0.90
2022-09-13T23:41:10.718Z,1.10
2022-09-13T23:43:39.423Z,0.97
2022-09-13T23:46:08.639Z,1.00
2022-09-13T23:48:38.640Z,0.90
2022-09-13T23:51:07.923Z,0.90
2022-09-13T23:53:37.473Z,1.03
2022-09-13T23:56:08.000Z,0.90
2022-09-13T23:58:36.966Z,0.90
